EGAEEGGP

Guest
Details From EGAE - Londonderry Eglinton
To EGGP - Liverpool
Flight Number -
Tags decoded
Created
Modified
Stats Distance 183 nm / 339 km
Max Altitude 0 ft / 0 m
Waypoints 4
Social Downloads 0
Likes 0
Share VATSIM

Download

Looking for another format? Having issues loading an existing format? Contact us
Advertisement - Login to hide

Notes

Requested: EGAE BEL L10 DUFFY L15 MAKUX EGGP Unmatched points: L10 L15 MAKUX

Route

EGAE BEL DUFFY EGGP

ID Type Via Altitude Latitude Longitude Leg Dist Tot Dist Heading (true) Name
O EGAE APT - 0 ft / 0 m 55.04281˚ -7.16119˚ - 0 nm - Londonderry Eglinton
BEL VOR - 0 ft / 0 m 54.66111˚ -6.23000˚ 39 nm 39 nm 125° / 126° BELFAST VOR-DME
DUFFY FIX - 0 ft / 0 m 54.51472˚ -5.86083˚ 15 nm 55 nm 124° / 125° -
O EGGP APT - 0 ft / 0 m 53.33363˚ -2.84977˚ 127 nm 183 nm 122° / 125° Liverpool

Altitude Profile

Advertisement - Login to hide

Weather


0- 5 10 15 20 25 30 35+ Temperature / ° C

Clouds and Precipitation
Forecast for 2017-12-12 00:00 UTC. Updated 2 hours ago

Ground ~20,000 ft ~40,000 ft Winds

EGAE

Details ICAO EGAE (LDY)
Name Londonderry Eglinton
Region United Kingdom
Timezone Europe/London (UTC+0.0)
Stats Elevation 22 ft / 7 m (AMSL)
Location 55.042812° -7.161188°
Runways 1
Magnetic Variation 3.711° W

METAR

EGAE 112020Z 22006KT 9999 VCSH FEW015 SCT028 03/02 Q1001

Decode

TAF

Not found

Departure Runways

ID Width Length Bearing (true) Bearing (mag) Surface Threshold Offset Overrun Length
08 148 ft / 45 m 6,058 ft / 1,846 m 73.07° 76.78° Asphalt 407 ft / 124 m 0 ft / 0 m
26 148 ft / 45 m 6,058 ft / 1,846 m 253.09° 256.80° Asphalt 0 ft / 0 m 0 ft / 0 m

EGGP

Details ICAO EGGP (LPL)
Name Liverpool
Region United Kingdom
Timezone Europe/London (UTC+0.0)
Stats Elevation 80 ft / 24 m (AMSL)
Location 53.333632° -2.849769°
Runways 1
Magnetic Variation 1.676° W

METAR

EGGP 112020Z 32008KT CAVOK 01/M01 Q0997

Decode

TAF

TAF TAF EGGP 111659Z 1118/1218 30008KT 9999 FEW045 PROB30 TEMPO 1118/1121 8000 BECMG 1121/1124 6000 PROB30 1200/1212 0300 FZFG VV/// BECMG 1212/1215 21012KT 9999 NSW

Decode

Destination Runways

ID Width Length Bearing (true) Bearing (mag) Surface Threshold Offset Overrun Length
09 151 ft / 46 m 7,466 ft / 2,276 m 85.59° 87.27° Asphalt 180 ft / 55 m 0 ft / 0 m
27 151 ft / 46 m 7,466 ft / 2,276 m 265.61° 267.29° Asphalt 0 ft / 0 m 0 ft / 0 m

Approach Navaids

Runway Type Ident Frequency Range Bearing (true) Bearing (mag) Slope Elevation
09 Localiser ILVR 111.75 MHz 18 nm / 33 km 85.61° 87.29° - 77 ft / 23 m (AMSL)
09 Glidescope ILVR 111.75 MHz 10 nm / 19 km 85.60° 87.28° 3.00° 80 ft / 24 m (AMSL)
09 DME ILVR 111.75 MHz 18 nm / 33 km - - - 88 ft / 27 m (AMSL)
27 Localiser ILQ 111.75 MHz 18 nm / 33 km 265.05° 266.72° - 55 ft / 17 m (AMSL)
27 Glidescope ILQ 111.75 MHz 10 nm / 19 km 265.60° 267.28° 3.00° 80 ft / 24 m (AMSL)
27 DME ILQ 111.75 MHz 18 nm / 33 km - - - 88 ft / 27 m (AMSL)

Popular Alternatives